createdAt,value
2017-10-11T00:01:21.031Z,11.10
2017-10-11T00:03:49.287Z,9.03
2017-10-11T00:06:18.305Z,9.17
2017-10-11T00:08:46.554Z,9.50
2017-10-11T00:11:15.566Z,8.17
2017-10-11T00:13:43.826Z,8.63
2017-10-11T00:16:12.837Z,8.70
2017-10-11T00:18:41.104Z,9.37
2017-10-11T00:21:09.351Z,8.50
2017-10-11T00:23:37.595Z,8.20
2017-10-11T00:26:05.842Z,9.07
2017-10-11T00:28:34.100Z,7.73
2017-10-11T00:31:03.121Z,7.90
2017-10-11T00:33:31.373Z,10.10
2017-10-11T00:35:59.617Z,8.60
2017-10-11T00:38:27.876Z,9.90
2017-10-11T00:40:56.125Z,10.40
2017-10-11T00:43:24.375Z,9.17
2017-10-11T00:45:52.626Z,10.20
2017-10-11T00:48:21.650Z,10.47
2017-10-11T00:50:49.905Z,9.20
2017-10-11T00:53:18.919Z,10.57
2017-10-11T00:55:47.173Z,11.60
2017-10-11T00:58:16.198Z,10.10
2017-10-11T01:00:44.454Z,11.13
2017-10-11T01:03:12.702Z,11.00
2017-10-11T01:05:40.954Z,11.27
2017-10-11T01:08:09.212Z,12.10
2017-10-11T01:10:37.466Z,11.30
2017-10-11T01:13:05.718Z,11.47
2017-10-11T01:15:34.745Z,11.47
2017-10-11T01:18:02.995Z,11.37
2017-10-11T01:20:31.257Z,11.53
2017-10-11T01:23:00.273Z,10.10
2017-10-11T01:25:28.537Z,11.70
2017-10-11T01:27:57.549Z,11.80
2017-10-11T01:30:25.812Z,10.97
2017-10-11T01:32:54.065Z,12.17
2017-10-11T01:35:23.102Z,12.17
2017-10-11T01:37:51.362Z,12.43
2017-10-11T01:40:19.618Z,12.13
2017-10-11T01:42:48.641Z,12.73
2017-10-11T01:45:16.899Z,12.97
2017-10-11T01:47:45.154Z,11.40
2017-10-11T01:50:13.412Z,13.50
2017-10-11T01:52:41.657Z,14.30
2017-10-11T01:55:15.502Z,14.90
2017-10-11T01:57:43.754Z,12.37
2017-10-11T02:00:12.015Z,12.67
2017-10-11T02:02:40.264Z,10.80
2017-10-11T02:05:08.535Z,12.77
2017-10-11T02:07:37.541Z,12.57
2017-10-11T02:10:05.792Z,10.17
2017-10-11T02:12:34.050Z,12.37
2017-10-11T02:15:02.314Z,10.63
2017-10-11T02:17:30.574Z,10.50
2017-10-11T02:19:58.834Z,12.67
2017-10-11T02:22:27.082Z,9.00
2017-10-11T02:24:55.342Z,10.73
2017-10-11T02:27:24.357Z,10.50
2017-10-11T02:29:52.619Z,12.00
2017-10-11T02:32:20.865Z,9.60
2017-10-11T02:34:49.122Z,7.87
2017-10-11T02:37:17.371Z,8.20
2017-10-11T02:39:45.630Z,8.90
2017-10-11T02:42:13.884Z,9.70
2017-10-11T02:44:42.898Z,10.30
2017-10-11T02:47:11.144Z,8.63
2017-10-11T02:49:40.169Z,9.77
2017-10-11T02:52:08.416Z,8.00
2017-10-11T02:54:37.439Z,8.03
2017-10-11T02:57:05.687Z,9.43
2017-10-11T02:59:34.700Z,8.90
2017-10-11T03:02:02.958Z,6.07
2017-10-11T03:04:31.969Z,7.60
2017-10-11T03:07:00.219Z,9.60
2017-10-11T03:09:29.241Z,7.90
2017-10-11T03:11:57.492Z,7.57
2017-10-11T03:14:26.518Z,8.27
2017-10-11T03:16:54.758Z,7.60
2017-10-11T03:19:23.777Z,8.50
2017-10-11T03:21:52.031Z,7.03
2017-10-11T03:24:21.142Z,6.90
2017-10-11T03:26:49.390Z,6.97
2017-10-11T03:29:17.647Z,5.43
2017-10-11T03:31:45.894Z,5.30
2017-10-11T03:34:14.164Z,6.13
2017-10-11T03:36:42.415Z,5.47
2017-10-11T03:39:11.418Z,6.47
2017-10-11T03:41:39.669Z,6.50
2017-10-11T03:44:08.682Z,5.17
2017-10-11T03:46:36.927Z,5.57
2017-10-11T03:49:05.175Z,5.77
2017-10-11T03:51:33.428Z,6.10
2017-10-11T03:54:01.678Z,7.33
2017-10-11T03:56:30.691Z,6.70
2017-10-11T03:58:58.937Z,6.00
2017-10-11T04:01:27.958Z,6.70
2017-10-11T04:03:56.203Z,6.30
2017-10-11T04:06:25.217Z,6.07
2017-10-11T04:08:53.471Z,5.77
2017-10-11T04:11:22.494Z,6.77
2017-10-11T04:13:50.728Z,6.90
2017-10-11T04:16:18.980Z,6.60
2017-10-11T04:18:47.229Z,6.43
2017-10-11T04:21:15.473Z,6.77
2017-10-11T04:23:43.717Z,6.70
2017-10-11T04:26:11.971Z,8.30
2017-10-11T04:28:40.230Z,8.07
2017-10-11T04:31:08.477Z,6.53
2017-10-11T04:33:37.482Z,7.70
2017-10-11T04:36:05.739Z,6.50
2017-10-11T04:38:34.750Z,7.77
2017-10-11T04:41:03.004Z,7.47
2017-10-11T04:43:32.010Z,6.90
2017-10-11T04:46:00.265Z,8.23
2017-10-11T04:48:29.281Z,6.60
2017-10-11T04:50:57.536Z,9.43
2017-10-11T04:53:26.538Z,7.10
2017-10-11T04:55:55.569Z,9.50
2017-10-11T04:58:23.809Z,9.67
2017-10-11T05:00:52.828Z,8.40
2017-10-11T05:03:21.075Z,8.20
2017-10-11T05:05:50.092Z,5.77
2017-10-11T05:08:18.337Z,6.70
2017-10-11T05:10:47.353Z,8.10
2017-10-11T05:13:15.593Z,8.57
2017-10-11T05:15:43.853Z,9.20
2017-10-11T05:18:12.102Z,10.03
2017-10-11T05:20:40.350Z,9.90
2017-10-11T05:23:08.603Z,9.67
2017-10-11T05:25:37.627Z,9.40
2017-10-11T05:28:05.871Z,9.97
2017-10-11T05:30:34.903Z,7.93
2017-10-11T05:33:03.141Z,8.37
2017-10-11T05:35:32.179Z,10.17
2017-10-11T05:38:00.423Z,10.23
2017-10-11T05:40:29.451Z,10.33
2017-10-11T05:42:57.689Z,11.00
2017-10-11T05:45:26.715Z,11.30
2017-10-11T05:47:54.961Z,9.27
2017-10-11T05:50:23.221Z,11.40
2017-10-11T05:52:52.243Z,10.60
2017-10-11T05:55:20.496Z,9.50
2017-10-11T05:57:49.506Z,9.40
2017-10-11T06:00:17.767Z,9.90
2017-10-11T06:02:46.785Z,7.63
2017-10-11T06:05:15.042Z,9.23
2017-10-11T06:07:44.051Z,7.90
2017-10-11T06:10:12.325Z,9.20
2017-10-11T06:12:40.569Z,8.90
2017-10-11T06:15:09.586Z,8.93
2017-10-11T06:17:37.839Z,10.00
2017-10-11T06:20:06.862Z,7.77
2017-10-11T06:22:35.109Z,7.70
2017-10-11T06:25:04.122Z,8.20
2017-10-11T06:27:32.373Z,7.43
2017-10-11T06:30:01.389Z,6.70
2017-10-11T06:32:29.630Z,7.90
2017-10-11T06:34:57.903Z,7.77
2017-10-11T06:37:26.158Z,7.80
2017-10-11T06:39:54.403Z,6.70
2017-10-11T06:42:22.651Z,7.37
2017-10-11T06:44:51.665Z,7.80
2017-10-11T06:47:19.919Z,7.00
2017-10-11T06:49:48.922Z,5.93
2017-10-11T06:52:17.955Z,6.60
2017-10-11T06:54:46.205Z,7.47
2017-10-11T06:57:17.062Z,6.83
2017-10-11T06:59:45.314Z,7.33
2017-10-11T07:02:21.140Z,8.30
2017-10-11T07:04:50.219Z,8.13
2017-10-11T07:07:19.229Z,6.90
2017-10-11T07:09:48.279Z,7.40
2017-10-11T07:12:16.563Z,7.77
2017-10-11T07:14:44.823Z,7.40
2017-10-11T07:17:13.076Z,7.93
2017-10-11T07:19:41.318Z,6.90
2017-10-11T07:36:12.969Z,7.20
2017-10-11T07:38:41.985Z,6.43
2017-10-11T07:41:10.234Z,7.10
2017-10-11T07:43:38.480Z,7.40
2017-10-11T07:46:06.748Z,7.50
2017-10-11T07:48:34.990Z,6.17
2017-10-11T07:51:03.249Z,7.23
2017-10-11T07:53:32.258Z,7.30
2017-10-11T07:56:00.511Z,6.73
2017-10-11T07:58:29.523Z,6.20
2017-10-11T08:00:57.781Z,7.63
2017-10-11T08:03:26.785Z,7.03
2017-10-11T08:05:55.047Z,7.40
2017-10-11T08:08:24.055Z,6.40
2017-10-11T08:10:53.062Z,8.00
2017-10-11T08:13:21.309Z,7.27
2017-10-11T08:15:50.326Z,6.50
2017-10-11T08:18:18.575Z,7.10
2017-10-11T08:20:47.597Z,7.30
2017-10-11T08:23:15.838Z,6.83
2017-10-11T08:25:44.085Z,5.47
2017-10-11T08:28:12.363Z,6.57
2017-10-11T08:30:40.619Z,6.20
2017-10-11T08:33:08.881Z,6.67
2017-10-11T08:35:37.130Z,4.83
2017-10-11T08:38:06.138Z,4.33
2017-10-11T08:40:34.390Z,5.23
2017-10-11T08:43:03.401Z,5.37
2017-10-11T08:45:31.658Z,4.03
2017-10-11T08:48:00.674Z,4.27
2017-10-11T08:50:29.679Z,4.90
2017-10-11T08:52:57.927Z,5.10
2017-10-11T08:55:26.935Z,3.73
2017-10-11T08:57:55.953Z,4.60
2017-10-11T09:00:24.185Z,3.63
2017-10-11T09:02:53.207Z,4.53
2017-10-11T09:05:21.445Z,4.30
2017-10-11T09:07:49.693Z,3.90
2017-10-11T09:10:17.926Z,2.73
2017-10-11T09:12:46.186Z,3.00
2017-10-11T09:15:15.206Z,2.50
2017-10-11T09:17:43.490Z,3.20
2017-10-11T09:20:11.723Z,2.50
2017-10-11T09:22:40.736Z,2.83
2017-10-11T09:25:08.984Z,2.50
2017-10-11T09:27:37.231Z,3.13
2017-10-11T09:30:05.467Z,2.60
2017-10-11T09:32:33.717Z,2.90
2017-10-11T09:35:02.730Z,2.60
2017-10-11T09:37:30.980Z,3.20
2017-10-11T09:39:59.981Z,2.80
2017-10-11T09:42:29.007Z,3.10
2017-10-11T09:44:57.248Z,2.40
2017-10-11T09:47:26.253Z,2.63
2017-10-11T09:49:54.502Z,2.30
2017-10-11T09:52:22.750Z,1.70
2017-10-11T09:54:50.993Z,2.60
2017-10-11T09:57:19.238Z,2.67
2017-10-11T09:59:48.243Z,2.20
2017-10-11T10:02:17.261Z,2.00
2017-10-11T10:04:45.498Z,2.57
2017-10-11T10:07:14.526Z,2.10
2017-10-11T10:09:44.319Z,3.00
2017-10-11T10:12:13.628Z,2.40
2017-10-11T10:14:44.912Z,2.63
2017-10-11T10:17:13.262Z,2.70
2017-10-11T10:19:41.616Z,2.60
2017-10-11T10:22:09.954Z,2.23
2017-10-11T10:24:38.324Z,2.40
2017-10-11T10:27:06.705Z,2.00
2017-10-11T10:29:37.114Z,2.13
2017-10-11T10:32:05.455Z,2.30
2017-10-11T10:34:34.573Z,2.17
2017-10-11T10:37:04.521Z,2.13
2017-10-11T10:39:41.066Z,1.90
2017-10-11T10:43:49.023Z,1.93
2017-10-11T10:47:01.461Z,2.10
2017-10-11T10:49:33.129Z,1.77
2017-10-11T10:52:01.609Z,1.50
2017-10-11T10:54:29.986Z,1.70
2017-10-11T10:56:58.368Z,1.60
2017-10-11T10:59:26.646Z,2.10
2017-10-11T11:01:56.872Z,2.07
2017-10-11T11:04:25.251Z,2.03
2017-10-11T11:06:53.573Z,2.33
2017-10-11T11:09:21.915Z,2.03
2017-10-11T11:11:50.236Z,2.50
2017-10-11T11:14:19.459Z,2.13
2017-10-11T11:16:48.673Z,2.47
2017-10-11T11:19:31.319Z,2.53
2017-10-11T11:22:00.724Z,8.70
2017-10-11T11:24:32.561Z,2.30
2017-10-11T11:27:01.949Z,1.93
2017-10-11T11:39:32.743Z,2.07
2017-10-11T11:42:04.960Z,2.10
2017-10-11T11:44:33.349Z,2.13
2017-10-11T11:47:05.362Z,2.27
2017-10-11T11:49:33.670Z,2.00
2017-10-11T11:52:02.038Z,2.17
2017-10-11T11:54:30.851Z,1.90
2017-10-11T11:56:59.128Z,1.50
2017-10-11T11:59:27.435Z,2.07
2017-10-11T12:01:56.486Z,1.90
2017-10-11T12:04:29.130Z,1.63
2017-10-11T12:07:05.678Z,2.30
2017-10-11T12:09:55.421Z,2.10
2017-10-11T12:12:23.873Z,2.53
2017-10-11T12:14:52.223Z,2.17
2017-10-11T12:17:20.485Z,2.27
2017-10-11T12:19:57.303Z,1.83
2017-10-11T12:22:57.023Z,1.90
2017-10-11T12:25:31.673Z,1.80
2017-10-11T13:11:50.636Z,1.70
2017-10-11T13:14:20.370Z,2.03
2017-10-11T13:16:53.438Z,1.47
2017-10-11T13:26:33.040Z,1.67
2017-10-11T13:29:41.802Z,1.60
2017-10-11T13:32:58.110Z,1.60
2017-10-11T13:35:26.465Z,1.80
2017-10-11T13:37:55.571Z,1.90
2017-10-11T13:40:23.941Z,1.87
2017-10-11T13:43:02.724Z,2.00
2017-10-11T13:45:31.049Z,2.43
2017-10-11T14:44:55.987Z,2.20
2017-10-11T14:47:24.377Z,2.27
2017-10-11T14:50:01.351Z,1.90
2017-10-11T14:52:30.455Z,2.07
2017-10-11T15:04:38.649Z,1.80
2017-10-11T15:07:13.583Z,2.67
2017-10-11T15:09:51.476Z,2.77
2017-10-11T15:12:33.363Z,3.10
2017-10-11T15:15:01.645Z,2.70
2017-10-11T15:17:29.899Z,2.40
2017-10-11T15:19:58.134Z,2.80
2017-10-11T15:22:26.390Z,2.67
2017-10-11T15:24:54.641Z,2.93
2017-10-11T15:27:23.666Z,2.07
2017-10-11T15:29:51.905Z,2.37
2017-10-11T15:32:20.923Z,2.67
2017-10-11T15:34:49.461Z,2.33
2017-10-11T15:37:17.809Z,2.13
2017-10-11T15:39:46.131Z,2.60
2017-10-11T15:42:15.201Z,2.40
2017-10-11T15:44:43.446Z,1.80
2017-10-11T15:47:14.720Z,2.30
2017-10-11T15:49:43.003Z,2.43
2017-10-11T15:52:11.261Z,2.20
2017-10-11T15:54:39.664Z,2.20
2017-10-11T15:57:09.549Z,2.10
2017-10-11T15:59:37.837Z,2.33
2017-10-11T16:02:06.086Z,1.80
2017-10-11T16:04:34.338Z,2.30
2017-10-11T16:07:03.355Z,1.97
2017-10-11T16:09:31.598Z,2.90
2017-10-11T16:12:00.619Z,2.40
2017-10-11T16:14:28.872Z,2.23
2017-10-11T16:16:57.129Z,1.80
2017-10-11T16:19:26.148Z,2.60
2017-10-11T16:21:54.394Z,2.60
2017-10-11T16:24:23.411Z,2.37
2017-10-11T16:26:51.666Z,3.10
2017-10-11T16:29:20.680Z,3.67
2017-10-11T16:31:48.950Z,2.50
2017-10-11T16:34:17.973Z,3.50
2017-10-11T16:36:46.225Z,2.93
2017-10-11T16:39:14.485Z,2.50
2017-10-11T16:41:43.494Z,2.30
2017-10-11T16:44:11.752Z,2.60
2017-10-11T16:46:40.760Z,2.70
2017-10-11T16:49:09.017Z,3.07
2017-10-11T16:51:38.028Z,2.60
2017-10-11T16:54:06.274Z,2.70
2017-10-11T16:56:34.527Z,3.00
2017-10-11T16:59:02.776Z,2.60
2017-10-11T17:01:31.032Z,3.23
2017-10-11T17:03:59.286Z,3.07
2017-10-11T17:06:28.320Z,2.50
2017-10-11T17:08:56.571Z,3.40
2017-10-11T17:11:25.597Z,1.50
2017-10-11T17:13:53.847Z,2.10
2017-10-11T17:16:22.864Z,2.00
2017-10-11T17:18:51.139Z,1.77
2017-10-11T17:21:19.401Z,1.47
2017-10-11T17:23:48.372Z,1.57
2017-10-11T17:26:17.379Z,1.70
2017-10-11T17:28:45.645Z,1.67
2017-10-11T17:31:14.670Z,1.50
2017-10-11T17:33:42.933Z,1.70
2017-10-11T17:36:11.181Z,1.73
2017-10-11T17:38:40.204Z,1.97
2017-10-11T17:41:08.451Z,1.70
2017-10-11T17:43:37.485Z,1.83
2017-10-11T17:46:05.741Z,2.10
2017-10-11T17:48:34.002Z,2.80
2017-10-11T17:51:02.260Z,2.60
2017-10-11T17:53:30.521Z,2.70
2017-10-11T17:55:58.776Z,2.80
2017-10-11T17:58:27.040Z,2.27
2017-10-11T18:00:55.288Z,2.70
2017-10-11T18:03:23.546Z,2.60
2017-10-11T18:05:52.553Z,3.17
2017-10-11T18:08:20.820Z,3.33
2017-10-11T18:10:49.834Z,3.43
2017-10-11T18:13:18.105Z,3.57
2017-10-11T18:15:46.360Z,2.63
2017-10-11T18:18:15.404Z,4.20
2017-10-11T18:20:43.649Z,3.00
2017-10-11T18:23:11.908Z,3.63
2017-10-11T18:25:40.933Z,4.07
2017-10-11T18:28:09.192Z,4.40
2017-10-11T18:30:37.448Z,3.47
2017-10-11T18:33:06.515Z,3.53
2017-10-11T18:35:34.778Z,3.37
2017-10-11T18:38:03.045Z,4.07
2017-10-11T18:40:31.309Z,5.40
2017-10-11T18:42:59.556Z,5.67
2017-10-11T18:45:28.595Z,4.27
2017-10-11T18:47:56.861Z,5.23
2017-10-11T18:50:25.176Z,5.30
2017-10-11T18:52:53.453Z,5.00
2017-10-11T18:55:21.727Z,4.37
2017-10-11T18:57:49.982Z,4.73
2017-10-11T19:00:18.233Z,4.07
2017-10-11T19:02:46.483Z,3.40
2017-10-11T19:05:14.721Z,4.00
2017-10-11T19:07:42.993Z,2.93
2017-10-11T19:10:11.257Z,3.80
2017-10-11T19:12:39.536Z,4.27
2017-10-11T19:15:07.805Z,3.97
2017-10-11T19:17:36.083Z,4.40
2017-10-11T19:20:04.338Z,3.63
2017-10-11T19:22:32.618Z,3.77
2017-10-11T19:25:00.866Z,3.23
2017-10-11T19:27:29.130Z,3.80
2017-10-11T19:29:58.167Z,3.30
2017-10-11T19:32:26.442Z,4.27
2017-10-11T19:34:54.707Z,3.47
2017-10-11T19:37:22.959Z,3.50
2017-10-11T19:39:51.261Z,3.23
2017-10-11T19:42:19.528Z,2.80
2017-10-11T19:44:47.797Z,3.07
2017-10-11T19:47:16.046Z,2.93
2017-10-11T19:49:45.087Z,2.40
2017-10-11T19:52:13.416Z,2.60
2017-10-11T19:54:42.439Z,2.00
2017-10-11T19:57:10.684Z,2.70
2017-10-11T19:59:39.703Z,2.13
2017-10-11T20:02:07.960Z,2.33
2017-10-11T20:04:36.979Z,2.33
2017-10-11T20:07:05.238Z,2.60
2017-10-11T20:09:34.253Z,2.57
2017-10-11T20:12:02.533Z,2.30
2017-10-11T20:14:31.005Z,2.63
2017-10-11T20:16:59.283Z,3.67
2017-10-11T20:19:27.547Z,3.53
2017-10-11T20:21:55.832Z,3.80
2017-10-11T20:24:24.095Z,3.90
2017-10-11T20:26:52.383Z,3.13
2017-10-11T20:29:20.654Z,3.40
2017-10-11T20:31:48.894Z,2.90
2017-10-11T20:34:17.187Z,3.00
2017-10-11T20:36:46.206Z,3.50
2017-10-11T20:39:14.487Z,2.73
2017-10-11T20:41:42.732Z,3.57
2017-10-11T20:44:11.780Z,3.40
2017-10-11T20:46:40.850Z,3.60
2017-10-11T20:49:09.129Z,4.03
2017-10-11T20:51:37.419Z,3.80
2017-10-11T20:54:06.462Z,3.80
2017-10-11T20:56:35.523Z,4.10
2017-10-11T20:59:03.770Z,3.97
2017-10-11T21:01:32.066Z,4.30
2017-10-11T21:04:00.397Z,4.43
2017-10-11T21:06:29.412Z,5.50
2017-10-11T21:08:57.691Z,4.87
2017-10-11T21:11:25.982Z,4.50
2017-10-11T21:13:54.260Z,3.80
2017-10-11T21:16:22.534Z,3.50
2017-10-11T21:18:50.788Z,4.30
2017-10-11T21:21:19.067Z,3.63
2017-10-11T21:23:47.347Z,3.80
2017-10-11T21:26:15.596Z,4.70
2017-10-11T21:28:43.871Z,8.90
2017-10-11T21:31:12.912Z,5.37
2017-10-11T21:33:41.175Z,4.87
2017-10-11T21:36:09.431Z,4.30
2017-10-11T21:38:37.704Z,3.73
2017-10-11T21:41:05.970Z,4.70
2017-10-11T21:43:34.254Z,5.60
2017-10-11T21:46:02.527Z,4.20
2017-10-11T21:48:30.776Z,4.63
2017-10-11T21:50:59.109Z,4.40
2017-10-11T21:53:27.376Z,4.30
2017-10-11T21:55:55.643Z,4.60
2017-10-11T21:58:23.890Z,5.13
2017-10-11T22:00:52.907Z,4.43
2017-10-11T22:03:21.155Z,4.20
2017-10-11T22:05:50.199Z,4.10
2017-10-11T22:08:18.458Z,3.53
2017-10-11T22:10:46.754Z,3.20
2017-10-11T22:13:15.974Z,4.00
2017-10-11T22:15:44.240Z,3.80
2017-10-11T22:18:12.489Z,4.17
2017-10-11T22:20:40.737Z,3.77
2017-10-11T22:23:09.014Z,3.83
2017-10-11T22:25:37.273Z,3.20
2017-10-11T22:28:06.294Z,4.00
2017-10-11T22:30:34.578Z,3.27
2017-10-11T22:33:02.818Z,3.77
2017-10-11T22:35:31.843Z,4.77
2017-10-11T22:38:00.093Z,3.73
2017-10-11T22:40:29.110Z,5.67
2017-10-11T22:42:57.355Z,4.00
2017-10-11T22:45:26.386Z,4.13
2017-10-11T22:47:54.638Z,5.07
2017-10-11T22:50:22.902Z,4.47
2017-10-11T22:52:51.927Z,5.17
2017-10-11T22:55:20.177Z,4.27
2017-10-11T22:57:49.181Z,5.30
2017-10-11T23:00:17.443Z,4.07
2017-10-11T23:02:46.461Z,3.83
2017-10-11T23:05:14.718Z,3.90
2017-10-11T23:07:42.975Z,3.37
2017-10-11T23:10:11.222Z,3.43
2017-10-11T23:12:39.478Z,4.40
2017-10-11T23:15:07.740Z,4.07
2017-10-11T23:17:35.994Z,4.57
2017-10-11T23:20:04.275Z,3.80
2017-10-11T23:22:32.534Z,4.00
2017-10-11T23:25:01.567Z,3.33
2017-10-11T23:27:29.826Z,4.07
2017-10-11T23:29:58.083Z,4.40
2017-10-11T23:32:27.104Z,3.30
2017-10-11T23:34:55.356Z,4.47
2017-10-11T23:37:23.607Z,4.00
2017-10-11T23:39:51.857Z,4.50
2017-10-11T23:42:20.122Z,3.90
2017-10-11T23:44:48.388Z,4.40
2017-10-11T23:47:16.640Z,3.70
2017-10-11T23:49:44.899Z,4.67
2017-10-11T23:52:13.910Z,4.33
2017-10-11T23:54:42.171Z,4.00
2017-10-11T23:57:11.190Z,4.63
2017-10-11T23:59:39.453Z,3.40
